Aviation Digital Data Service (ADDS)

Output produced by METARs form (1451 UTC 22 April 2019)
found at http://www.aviationweather.gov/metar/data/
 
METAR text: HKEL 221400Z 32007KT 9999 FEW021CB SCT022 BKN260 22/14 Q1021
Conditions at: HKEL (ELDORET , KE) observed 1400 UTC 22 April 2019
Temperature: 22.0°C (72°F)
Dewpoint: 14.0°C (57°F) [RH = 60%]
Pressure (altimeter): 30.15 inches Hg (1021.0 mb)
Winds: from the NW (320 degrees) at 8 MPH (7 knots; 3.6 m/s)
Visibility: 6 or more miles (10+ km)
Ceiling: 26000 feet AGL
Clouds: few clouds at 2100 feet AGL
scattered clouds at 2200 feet AGL
broken clouds at 26000 feet AGL
Weather: no significant weather observed at this time

METAR text: HKEL 221300Z 31009KT 9999 TS FEW022CB BKN023 BKN270 22/12 Q1021
Conditions at: HKEL (ELDORET , KE) observed 1300 UTC 22 April 2019
Temperature: 22.0°C (72°F)
Dewpoint: 12.0°C (54°F) [RH = 53%]
Pressure (altimeter): 30.15 inches Hg (1021.0 mb)
Winds: from the NW (310 degrees) at 10 MPH (9 knots; 4.6 m/s)
Visibility: 6 or more miles (10+ km)
Ceiling: 2300 feet AGL
Clouds: few clouds at 2200 feet AGL
broken clouds at 2300 feet AGL
broken clouds at 27000 feet AGL
Weather: TS  (thunderstorm)

METAR text: HKEL 221200Z 28009KT 9999 FEW022CB BKN023 BKN270 23/13 RETS Q1021
Conditions at: HKEL (ELDORET , KE) observed 1200 UTC 22 April 2019
Temperature: 23.0°C (73°F)
Dewpoint: 13.0°C (55°F) [RH = 53%]
Pressure (altimeter): 30.15 inches Hg (1021.0 mb)
Winds: from the W (280 degrees) at 10 MPH (9 knots; 4.6 m/s)
Visibility: 6 or more miles (10+ km)
Ceiling: 2300 feet AGL
Clouds: few clouds at 2200 feet AGL
broken clouds at 2300 feet AGL
broken clouds at 27000 feet AGL
Weather: no significant weather observed at this time

METAR text: HKEL 221100Z 24010KT 9999 TS FEW021CB BKN022 22/15 Q1022
Conditions at: HKEL (ELDORET , KE) observed 1100 UTC 22 April 2019
Temperature: 22.0°C (72°F)
Dewpoint: 15.0°C (59°F) [RH = 65%]
Pressure (altimeter): 30.18 inches Hg (1022.0 mb)
Winds: from the WSW (240 degrees) at 12 MPH (10 knots; 5.1 m/s)
Visibility: 6 or more miles (10+ km)
Ceiling: 2200 feet AGL
Clouds: few clouds at 2100 feet AGL
broken clouds at 2200 feet AGL
Weather: TS  (thunderstorm)

METAR text: HKEL 221000Z VRB06KT 9999 FEW021CB BKN022 BKN270 24/14 Q1023
Conditions at: HKEL (ELDORET , KE) observed 1000 UTC 22 April 2019
Temperature: 24.0°C (75°F)
Dewpoint: 14.0°C (57°F) [RH = 54%]
Pressure (altimeter): 30.21 inches Hg (1023.0 mb)
Winds: variable direction winds at 7 MPH (6 knots; 3.1 m/s)
Visibility: 6 or more miles (10+ km)
Ceiling: 2200 feet AGL
Clouds: few clouds at 2100 feet AGL
broken clouds at 2200 feet AGL
broken clouds at 27000 feet AGL
Weather: no significant weather observed at this time

METAR text: HKEL 220900Z 36005KT 9999 FEW020CB BKN021 BKN260 22/14 Q1024
Conditions at: HKEL (ELDORET , KE) observed 0900 UTC 22 April 2019
Temperature: 22.0°C (72°F)
Dewpoint: 14.0°C (57°F) [RH = 60%]
Pressure (altimeter): 30.24 inches Hg (1024.0 mb)
Winds: from the N (360 degrees) at 6 MPH (5 knots; 2.6 m/s)
Visibility: 6 or more miles (10+ km)
Ceiling: 2100 feet AGL
Clouds: few clouds at 2000 feet AGL
broken clouds at 2100 feet AGL
broken clouds at 26000 feet AGL
Weather: no significant weather observed at this time

METAR text: HKEL 220700Z VRB05KT 9999 SCT020 BKN250 20/15 Q1025
Conditions at: HKEL (ELDORET , KE) observed 0700 UTC 22 April 2019
Temperature: 20.0°C (68°F)
Dewpoint: 15.0°C (59°F) [RH = 73%]
Pressure (altimeter): 30.27 inches Hg (1025.0 mb)
Winds: variable direction winds at 6 MPH (5 knots; 2.6 m/s)
Visibility: 6 or more miles (10+ km)
Ceiling: 25000 feet AGL
Clouds: scattered clouds at 2000 feet AGL
broken clouds at 25000 feet AGL
Weather: no significant weather observed at this time

METAR text: HKEL 220600Z 27006KT 9999 FEW018CB ST019 BKN250 18/15 Q1025
Conditions at: HKEL (ELDORET , KE) observed 0600 UTC 22 April 2019
Temperature: 18.0°C (64°F)
Dewpoint: 15.0°C (59°F) [RH = 83%]
Pressure (altimeter): 30.27 inches Hg (1025.0 mb)
Winds: from the W (270 degrees) at 7 MPH (6 knots; 3.1 m/s)
Visibility: 6 or more miles (10+ km)
Ceiling: 25000 feet AGL
Clouds: few clouds at 1800 feet AGL
broken clouds at 25000 feet AGL
Weather: no significant weather observed at this time

METAR text: HKEL 220500Z 22004KT 9999 FEW015 FEW017CB BKN240 16/13 Q1024
Conditions at: HKEL (ELDORET , KE) observed 0500 UTC 22 April 2019
Temperature: 16.0°C (61°F)
Dewpoint: 13.0°C (55°F) [RH = 82%]
Pressure (altimeter): 30.24 inches Hg (1024.0 mb)
Winds: from the SW (220 degrees) at 5 MPH (4 knots; 2.1 m/s)
Visibility: 6 or more miles (10+ km)
Ceiling: 24000 feet AGL
Clouds: few clouds at 1500 feet AGL
few clouds at 1700 feet AGL
broken clouds at 24000 feet AGL
Weather: no significant weather observed at this time

METAR text: HKEL 220400Z 17004KT 9999 FEW015 FEW017CB BKN240 14/13 Q1023
Conditions at: HKEL (ELDORET , KE) observed 0400 UTC 22 April 2019
Temperature: 14.0°C (57°F)
Dewpoint: 13.0°C (55°F) [RH = 94%]
Pressure (altimeter): 30.21 inches Hg (1023.0 mb)
Winds: from the S (170 degrees) at 5 MPH (4 knots; 2.1 m/s)
Visibility: 6 or more miles (10+ km)
Ceiling: 24000 feet AGL
Clouds: few clouds at 1500 feet AGL
few clouds at 1700 feet AGL
broken clouds at 24000 feet AGL
Weather: no significant weather observed at this time

METAR text: HKEL 220300Z 13006KT 9999 FEW017CB BKN240 14/13 Q1022
Conditions at: HKEL (ELDORET , KE) observed 0300 UTC 22 April 2019
Temperature: 14.0°C (57°F)
Dewpoint: 13.0°C (55°F) [RH = 94%]
Pressure (altimeter): 30.18 inches Hg (1022.0 mb)
Winds: from the SE (130 degrees) at 7 MPH (6 knots; 3.1 m/s)
Visibility: 6 or more miles (10+ km)
Ceiling: 24000 feet AGL
Clouds: few clouds at 1700 feet AGL
broken clouds at 24000 feet AGL
Weather: no significant weather observed at this time

METAR text: HKEL 220200Z 00000KT 9999 FEW018CB BKN240 15/14 Q1022
Conditions at: HKEL (ELDORET , KE) observed 0200 UTC 22 April 2019
Temperature: 15.0°C (59°F)
Dewpoint: 14.0°C (57°F) [RH = 94%]
Pressure (altimeter): 30.18 inches Hg (1022.0 mb)
Winds: calm
Visibility: 6 or more miles (10+ km)
Ceiling: 24000 feet AGL
Clouds: few clouds at 1800 feet AGL
broken clouds at 24000 feet AGL
Weather: no significant weather observed at this time

METAR text: HKEL 220100Z 20004KT 9999 FEW018CB BKN250 15/14 Q1022
Conditions at: HKEL (ELDORET , KE) observed 0100 UTC 22 April 2019
Temperature: 15.0°C (59°F)
Dewpoint: 14.0°C (57°F) [RH = 94%]
Pressure (altimeter): 30.18 inches Hg (1022.0 mb)
Winds: from the SSW (200 degrees) at 5 MPH (4 knots; 2.1 m/s)
Visibility: 6 or more miles (10+ km)
Ceiling: 25000 feet AGL
Clouds: few clouds at 1800 feet AGL
broken clouds at 25000 feet AGL
Weather: no significant weather observed at this time

METAR text: HKEL 220000Z 15003KT 9999 FEW018CB SCT080 BKN250 16/14 Q1021
Conditions at: HKEL (ELDORET , KE) observed 0000 UTC 22 April 2019
Temperature: 16.0°C (61°F)
Dewpoint: 14.0°C (57°F) [RH = 88%]
Pressure (altimeter): 30.15 inches Hg (1021.0 mb)
Winds: from the SSE (150 degrees) at 3 MPH (3 knots; 1.5 m/s)
Visibility: 6 or more miles (10+ km)
Ceiling: 25000 feet AGL
Clouds: few clouds at 1800 feet AGL
scattered clouds at 8000 feet AGL
broken clouds at 25000 feet AGL
Weather: no significant weather observed at this time

METAR text: HKEL 212300Z 13004KT 9999 FEW016 FEW018CB BKN080 17/15 Q1022
Conditions at: HKEL (ELDORET , KE) observed 2300 UTC 21 April 2019
Temperature: 17.0°C (63°F)
Dewpoint: 15.0°C (59°F) [RH = 88%]
Pressure (altimeter): 30.18 inches Hg (1022.0 mb)
Winds: from the SE (130 degrees) at 5 MPH (4 knots; 2.1 m/s)
Visibility: 6 or more miles (10+ km)
Ceiling: 8000 feet AGL
Clouds: few clouds at 1600 feet AGL
few clouds at 1800 feet AGL
broken clouds at 8000 feet AGL
Weather: no significant weather observed at this time

METAR text: HKEL 212200Z 14004KT 9999 FEW016 FEW018CB BKN080 17/15 Q1023
Conditions at: HKEL (ELDORET , KE) observed 2200 UTC 21 April 2019
Temperature: 17.0°C (63°F)
Dewpoint: 15.0°C (59°F) [RH = 88%]
Pressure (altimeter): 30.21 inches Hg (1023.0 mb)
Winds: from the SE (140 degrees) at 5 MPH (4 knots; 2.1 m/s)
Visibility: 6 or more miles (10+ km)
Ceiling: 8000 feet AGL
Clouds: few clouds at 1600 feet AGL
few clouds at 1800 feet AGL
broken clouds at 8000 feet AGL
Weather: no significant weather observed at this time

METAR text: HKEL 212100Z 00000KT 9999 FEW018CB BKN080 17/16 Q1024
Conditions at: HKEL (ELDORET , KE) observed 2100 UTC 21 April 2019
Temperature: 17.0°C (63°F)
Dewpoint: 16.0°C (61°F) [RH = 94%]
Pressure (altimeter): 30.24 inches Hg (1024.0 mb)
Winds: calm
Visibility: 6 or more miles (10+ km)
Ceiling: 8000 feet AGL
Clouds: few clouds at 1800 feet AGL
broken clouds at 8000 feet AGL
Weather: no significant weather observed at this time

METAR text: HKEL 212000Z VRB01KT 9999 FEW018CB BKN080 17/16 RERA Q1023
Conditions at: HKEL (ELDORET , KE) observed 2000 UTC 21 April 2019
Temperature: 17.0°C (63°F)
Dewpoint: 16.0°C (61°F) [RH = 94%]
Pressure (altimeter): 30.21 inches Hg (1023.0 mb)
Winds: variable direction winds at 1 MPH (1 knots; 0.5 m/s)
Visibility: 6 or more miles (10+ km)
Ceiling: 8000 feet AGL
Clouds: few clouds at 1800 feet AGL
broken clouds at 8000 feet AGL
Weather: no significant weather observed at this time

METAR text: HKEL 211900Z 17003KT 9999 RA FEW018CB BKN080 17/16 Q1023
Conditions at: HKEL (ELDORET , KE) observed 1900 UTC 21 April 2019
Temperature: 17.0°C (63°F)
Dewpoint: 16.0°C (61°F) [RH = 94%]
Pressure (altimeter): 30.21 inches Hg (1023.0 mb)
Winds: from the S (170 degrees) at 3 MPH (3 knots; 1.5 m/s)
Visibility: 6 or more miles (10+ km)
Ceiling: 8000 feet AGL
Clouds: few clouds at 1800 feet AGL
broken clouds at 8000 feet AGL
Weather: RA  (moderate rain)

METAR text: HKEL 211800Z 20003KT 9999 -RA FEW016 FEW019CB BKN090 19/15 Q1022
Conditions at: HKEL (ELDORET , KE) observed 1800 UTC 21 April 2019
Temperature: 19.0°C (66°F)
Dewpoint: 15.0°C (59°F) [RH = 78%]
Pressure (altimeter): 30.18 inches Hg (1022.0 mb)
Winds: from the SSW (200 degrees) at 3 MPH (3 knots; 1.5 m/s)
Visibility: 6 or more miles (10+ km)
Ceiling: 9000 feet AGL
Clouds: few clouds at 1600 feet AGL
few clouds at 1900 feet AGL
broken clouds at 9000 feet AGL
Weather: -RA  (light rain)

METAR text: HKEL 211700Z 23005KT 9999 FEW019CB SCT090 BKN280 19/15 Q1020
Conditions at: HKEL (ELDORET , KE) observed 1700 UTC 21 April 2019
Temperature: 19.0°C (66°F)
Dewpoint: 15.0°C (59°F) [RH = 78%]
Pressure (altimeter): 30.12 inches Hg (1020.0 mb)
Winds: from the SW (230 degrees) at 6 MPH (5 knots; 2.6 m/s)
Visibility: 6 or more miles (10+ km)
Ceiling: 28000 feet AGL
Clouds: few clouds at 1900 feet AGL
scattered clouds at 9000 feet AGL
broken clouds at 28000 feet AGL
Weather: no significant weather observed at this time

METAR text: HKEL 211600Z VRB02KT 9999 FEW016 FEW019CB BKN090 20/14 Q1020
Conditions at: HKEL (ELDORET , KE) observed 1600 UTC 21 April 2019
Temperature: 20.0°C (68°F)
Dewpoint: 14.0°C (57°F) [RH = 68%]
Pressure (altimeter): 30.12 inches Hg (1020.0 mb)
Winds: variable direction winds at 2 MPH (2 knots; 1.0 m/s)
Visibility: 6 or more miles (10+ km)
Ceiling: 9000 feet AGL
Clouds: few clouds at 1600 feet AGL
few clouds at 1900 feet AGL
broken clouds at 9000 feet AGL
Weather: no significant weather observed at this time

METAR text: HKEL 211500Z 00000KT 9999 FEW017 FEW020CB BKN090 21/14 Q1020
Conditions at: HKEL (ELDORET , KE) observed 1500 UTC 21 April 2019
Temperature: 21.0°C (70°F)
Dewpoint: 14.0°C (57°F) [RH = 64%]
Pressure (altimeter): 30.12 inches Hg (1020.0 mb)
Winds: calm
Visibility: 6 or more miles (10+ km)
Ceiling: 9000 feet AGL
Clouds: few clouds at 1700 feet AGL
few clouds at 2000 feet AGL
broken clouds at 9000 feet AGL
Weather: no significant weather observed at this time

METAR text: HKEL 211400Z 29007KT 9999 FEW017 FEW020CB BKN290 20/13 Q1019
Conditions at: HKEL (ELDORET , KE) observed 1400 UTC 21 April 2019
Temperature: 20.0°C (68°F)
Dewpoint: 13.0°C (55°F) [RH = 64%]
Pressure (altimeter): 30.09 inches Hg (1019.0 mb)
Winds: from the WNW (290 degrees) at 8 MPH (7 knots; 3.6 m/s)
Visibility: 6 or more miles (10+ km)
Ceiling: 29000 feet AGL
Clouds: few clouds at 1700 feet AGL
few clouds at 2000 feet AGL
broken clouds at 29000 feet AGL
Weather: no significant weather observed at this time

METAR text: HKEL 211300Z 28014KT 9999 FEW021CB SCT090 23/14 Q1018
Conditions at: HKEL (ELDORET , KE) observed 1300 UTC 21 April 2019
Temperature: 23.0°C (73°F)
Dewpoint: 14.0°C (57°F) [RH = 57%]
Pressure (altimeter): 30.06 inches Hg (1018.0 mb)
Winds: from the W (280 degrees) at 16 MPH (14 knots; 7.2 m/s)
Visibility: 6 or more miles (10+ km)
Ceiling: at least 12,000 feet AGL
Clouds: few clouds at 2100 feet AGL
scattered clouds at 9000 feet AGL
Weather: no significant weather observed at this time

METAR text: HKEL 211200Z 27011KT 9999 FEW018 FEW022CB BKN023 25/14 Q1020
Conditions at: HKEL (ELDORET , KE) observed 1200 UTC 21 April 2019
Temperature: 25.0°C (77°F)
Dewpoint: 14.0°C (57°F) [RH = 50%]
Pressure (altimeter): 30.12 inches Hg (1020.0 mb)
Winds: from the W (270 degrees) at 13 MPH (11 knots; 5.7 m/s)
Visibility: 6 or more miles (10+ km)
Ceiling: 2300 feet AGL
Clouds: few clouds at 1800 feet AGL
few clouds at 2200 feet AGL
broken clouds at 2300 feet AGL
Weather: no significant weather observed at this time

METAR text: HKEL 211100Z 30008KT 9999 FEW022CB BKN024 28/08 Q1021
Conditions at: HKEL (ELDORET , KE) observed 1100 UTC 21 April 2019
Temperature: 28.0°C (82°F)
Dewpoint: 8.0°C (46°F) [RH = 28%]
Pressure (altimeter): 30.15 inches Hg (1021.0 mb)
Winds: from the WNW (300 degrees) at 9 MPH (8 knots; 4.1 m/s)
Visibility: 6 or more miles (10+ km)
Ceiling: 2400 feet AGL
Clouds: few clouds at 2200 feet AGL
broken clouds at 2400 feet AGL
Weather: no significant weather observed at this time

METAR text: HKEL 211000Z 06014KT 9999 FEW023CB BKN024 27/07 Q1022
Conditions at: HKEL (ELDORET , KE) observed 1000 UTC 21 April 2019
Temperature: 27.0°C (81°F)
Dewpoint: 7.0°C (45°F) [RH = 28%]
Pressure (altimeter): 30.18 inches Hg (1022.0 mb)
Winds: from the ENE (60 degrees) at 16 MPH (14 knots; 7.2 m/s)
Visibility: 6 or more miles (10+ km)
Ceiling: 2400 feet AGL
Clouds: few clouds at 2300 feet AGL
broken clouds at 2400 feet AGL
Weather: no significant weather observed at this time

METAR text: HKEL 210900Z 11009KT 9999 FEW021CB BKN022 26/11 Q1023
Conditions at: HKEL (ELDORET , KE) observed 0900 UTC 21 April 2019
Temperature: 26.0°C (79°F)
Dewpoint: 11.0°C (52°F) [RH = 39%]
Pressure (altimeter): 30.21 inches Hg (1023.0 mb)
Winds: from the ESE (110 degrees) at 10 MPH (9 knots; 4.6 m/s)
Visibility: 6 or more miles (10+ km)
Ceiling: 2200 feet AGL
Clouds: few clouds at 2100 feet AGL
broken clouds at 2200 feet AGL
Weather: no significant weather observed at this time

METAR text: HKEL 210800Z 20003KT 9999 FEW020CB BKN021 24/12 Q1024
Conditions at: HKEL (ELDORET , KE) observed 0800 UTC 21 April 2019
Temperature: 24.0°C (75°F)
Dewpoint: 12.0°C (54°F) [RH = 47%]
Pressure (altimeter): 30.24 inches Hg (1024.0 mb)
Winds: from the SSW (200 degrees) at 3 MPH (3 knots; 1.5 m/s)
Visibility: 6 or more miles (10+ km)
Ceiling: 2100 feet AGL
Clouds: few clouds at 2000 feet AGL
broken clouds at 2100 feet AGL
Weather: no significant weather observed at this time

METAR text: HKEL 210700Z 07004KT 9999 FEW019CB SCT270 23/12 Q1024
Conditions at: HKEL (ELDORET , KE) observed 0700 UTC 21 April 2019
Temperature: 23.0°C (73°F)
Dewpoint: 12.0°C (54°F) [RH = 50%]
Pressure (altimeter): 30.24 inches Hg (1024.0 mb)
Winds: from the ENE (70 degrees) at 5 MPH (4 knots; 2.1 m/s)
Visibility: 6 or more miles (10+ km)
Ceiling: at least 12,000 feet AGL
Clouds: few clouds at 1900 feet AGL
scattered clouds at 27000 feet AGL
Weather: no significant weather observed at this time

METAR text: HKEL 210600Z 12004KT 9999 FEW018CB BKN260 20/13 Q1024
Conditions at: HKEL (ELDORET , KE) observed 0600 UTC 21 April 2019
Temperature: 20.0°C (68°F)
Dewpoint: 13.0°C (55°F) [RH = 64%]
Pressure (altimeter): 30.24 inches Hg (1024.0 mb)
Winds: from the ESE (120 degrees) at 5 MPH (4 knots; 2.1 m/s)
Visibility: 6 or more miles (10+ km)
Ceiling: 26000 feet AGL
Clouds: few clouds at 1800 feet AGL
broken clouds at 26000 feet AGL
Weather: no significant weather observed at this time

METAR text: HKEL 210500Z VRB02KT 9999 FEW017CB BKN260 16/12 Q1024
Conditions at: HKEL (ELDORET , KE) observed 0500 UTC 21 April 2019
Temperature: 16.0°C (61°F)
Dewpoint: 12.0°C (54°F) [RH = 77%]
Pressure (altimeter): 30.24 inches Hg (1024.0 mb)
Winds: variable direction winds at 2 MPH (2 knots; 1.0 m/s)
Visibility: 6 or more miles (10+ km)
Ceiling: 26000 feet AGL
Clouds: few clouds at 1700 feet AGL
broken clouds at 26000 feet AGL
Weather: no significant weather observed at this time

METAR text: HKEL 210400Z VRB01KT 9999 FEW016 BKN250 13/10 Q1023
Conditions at: HKEL (ELDORET , KE) observed 0400 UTC 21 April 2019
Temperature: 13.0°C (55°F)
Dewpoint: 10.0°C (50°F) [RH = 82%]
Pressure (altimeter): 30.21 inches Hg (1023.0 mb)
Winds: variable direction winds at 1 MPH (1 knots; 0.5 m/s)
Visibility: 6 or more miles (10+ km)
Ceiling: 25000 feet AGL
Clouds: few clouds at 1600 feet AGL
broken clouds at 25000 feet AGL
Weather: no significant weather observed at this time

METAR text: HKEL 210300Z 17006KT CAVOK 14/11 Q1023
Conditions at: HKEL (ELDORET , KE) observed 0300 UTC 21 April 2019
Temperature: 14.0°C (57°F)
Dewpoint: 11.0°C (52°F) [RH = 82%]
Pressure (altimeter): 30.21 inches Hg (1023.0 mb)
Winds: from the S (170 degrees) at 7 MPH (6 knots; 3.1 m/s)
Visibility: 6 or more miles (10+ km)
Ceiling: ceiling and visibility are OK
Clouds: unknown
Weather: no significant weather observed at this time

Forecast for: HKEL (ELDORET , KE)
Text: TAF HKEL 221100Z 2212/2312 VRB05KT 9999 FEW022CB BKN023
Forecast period: 1200 UTC 22 April 2019 to 0800 UTC 23 April 2019
Forecast type: FROM: standard forecast or significant change
Winds: variable direction winds at 6 MPH (5 knots; 2.6 m/s)
Visibility: 6 or more miles 10+ km)
Ceiling: 2300 feet AGL
Clouds: few clouds at 2200 feet AGL
broken clouds at 2300 feet AGL
Weather: no significant weather forecast for this period
Text: TEMPO2213/2219 VRB10KT -TSRA FEW018CB SCT022 BKN080
Forecast period: 1300 to 1900 UTC 22 April 2019
Forecast type: TEMPORARY: The following changes expected for less than half the time period
Winds: variable direction winds at 12 MPH (10 knots; 5.1 m/s)
Visibility: missing
Ceiling: 8000 feet AGL
Clouds: few clouds at 1800 feet AGL
scattered clouds at 2200 feet AGL
broken clouds at 8000 feet AGL
Weather: -TSRA  (light rain associated with thunderstorm(s))
Text: BECMG 2220/2223VRB05KT FEW018CB BKN080
Forecast period: 0800 to 1200 UTC 23 April 2019
Forecast type: BECOMING: Conditions expected to become as follows by 1100 UTC 23 April 2019
Winds: from the ESE (120 degrees) at 12 MPH (10 knots; 5.1 m/s)
Visibility: 6 or more miles 10+ km)
Ceiling: 2300 feet AGL
Clouds: few clouds at 2200 feet AGL
broken clouds at 2300 feet AGL
Weather: no significant weather forecast for this period